Time;durP1;ratioP1;P1;durP2;ratioP2;P2;SDS_P1;SDS_P2;PMS_P1;PMS_P2;Temp;Humidity;BMP_temperature;BMP_pressure;BME280_temperature;BME280_humidity;BME280_pressure;Samples;Min_cycle;Max_cycle;Signal;HPM_P1;HPM_P2
2022/11/21 00:00:57;;;;;;;13.40;11.60;;;;;;;0.89;69.99;99373.81;10103797;29;20233;-85
2022/11/21 00:06:20;;;;;;;12.40;10.73;;;;;;;0.81;69.95;99371.72;10115500;29;20293;-84
2022/11/21 00:11:42;;;;;;;12.07;10.63;;;;;;;0.85;68.79;99375.53;10095257;29;20260;-85
2022/11/21 00:17:05;;;;;;;13.87;11.87;;;;;;;0.55;71.16;99382.25;10104664;29;20216;-84
2022/11/21 00:22:27;;;;;;;12.80;10.70;;;;;;;0.64;69.98;99382.41;10102740;29;20412;-85
2022/11/21 00:27:51;;;;;;;12.33;10.63;;;;;;;0.62;70.14;99402.13;10111660;29;20224;-86
2022/11/21 00:33:14;;;;;;;13.17;10.63;;;;;;;0.76;69.51;99399.47;10105326;29;20248;-90
2022/11/21 00:38:36;;;;;;;14.47;10.73;;;;;;;0.99;68.30;99407.00;10129076;29;20266;-90
2022/11/21 00:43:58;;;;;;;14.87;10.93;;;;;;;0.82;69.30;99401.94;10114560;29;20241;-90
2022/11/21 00:49:21;;;;;;;11.03;9.73;;;;;;;0.56;70.01;99404.13;10124468;29;22111;-87
2022/11/21 00:54:43;;;;;;;11.47;9.10;;;;;;;0.88;68.94;99397.97;10105256;29;20578;-84
2022/11/21 01:00:06;;;;;;;10.57;9.13;;;;;;;0.91;67.65;99388.22;10112230;29;20551;-86
2022/11/21 01:05:31;;;;;;;10.37;9.13;;;;;;;0.72;68.92;99393.69;10094691;29;20201;-86
2022/11/21 01:10:54;;;;;;;10.27;8.70;;;;;;;0.97;67.70;99392.59;10128525;29;20285;-85
2022/11/21 01:16:19;;;;;;;8.73;7.80;;;;;;;0.23;72.79;99405.75;10119777;29;20281;-84
2022/11/21 01:21:41;;;;;;;9.67;8.60;;;;;;;0.32;70.86;99408.75;10094606;29;20667;-86
2022/11/21 01:27:03;;;;;;;10.50;8.13;;;;;;;0.53;69.45;99412.19;10126818;29;20288;-87
2022/11/21 01:32:25;;;;;;;10.57;9.30;;;;;;;0.86;68.49;99425.16;10124771;29;20639;-86
2022/11/21 01:37:48;;;;;;;9.47;8.23;;;;;;;0.67;68.46;99435.34;10122372;29;20225;-86
2022/11/21 01:43:12;;;;;;;9.60;8.07;;;;;;;0.55;68.93;99429.38;10101799;29;20300;-85
2022/11/21 01:48:39;;;;;;;10.70;8.83;;;;;;;0.58;68.38;99428.75;10109479;29;20229;-85
2022/11/21 01:54:13;;;;;;;10.33;9.27;;;;;;;0.71;66.50;99430.03;10102491;29;20260;-85
2022/11/21 01:59:41;;;;;;;10.90;9.30;;;;;;;0.57;67.96;99433.47;10117529;29;20249;-84
2022/11/21 02:05:08;;;;;;;12.87;9.63;;;;;;;0.51;68.57;99436.59;10117149;29;20610;-85
2022/11/21 02:10:32;;;;;;;11.97;9.53;;;;;;;0.73;67.79;99438.88;10115997;29;20224;-85
2022/11/21 02:15:54;;;;;;;10.60;8.50;;;;;;;0.56;67.90;99436.56;10117037;29;20221;-85
2022/11/21 02:21:26;;;;;;;9.97;8.27;;;;;;;0.34;67.79;99437.00;10113188;29;20210;-85
2022/11/21 02:26:48;;;;;;;9.63;8.63;;;;;;;0.66;67.99;99430.94;10100271;29;20289;-85
2022/11/21 02:32:23;;;;;;;9.83;8.70;;;;;;;0.77;67.83;99434.41;10114020;29;20269;-85
2022/11/21 02:37:47;;;;;;;12.83;10.10;;;;;;;0.59;68.05;99436.78;10093346;29;20209;-86
2022/11/21 02:43:15;;;;;;;10.30;9.17;;;;;;;0.76;67.85;99436.38;10114895;29;20581;-86
2022/11/21 02:48:38;;;;;;;11.03;9.53;;;;;;;0.65;67.84;99437.59;10132863;29;20269;-86
2022/11/21 02:54:00;;;;;;;11.67;10.33;;;;;;;0.55;67.68;99437.69;10116551;29;20264;-86
2022/11/21 02:59:22;;;;;;;12.67;9.80;;;;;;;0.73;67.67;99444.44;10131812;29;20241;-86
2022/11/21 03:04:44;;;;;;;12.43;10.47;;;;;;;0.81;67.65;99438.28;10118600;29;20627;-87
2022/11/21 03:10:07;;;;;;;13.07;10.70;;;;;;;0.62;68.05;99434.56;10121451;29;20253;-86
2022/11/21 03:15:31;;;;;;;11.83;9.87;;;;;;;-0.03;70.53;99440.31;10110857;29;20281;-87
2022/11/21 03:20:53;;;;;;;11.97;10.67;;;;;;;0.56;68.36;99440.19;10109782;29;20205;-86
2022/11/21 03:26:16;;;;;;;12.70;10.03;;;;;;;0.75;66.40;99439.44;10132649;29;20205;-87
2022/11/21 03:31:38;;;;;;;14.07;9.93;;;;;;;0.59;67.98;99444.28;10128353;29;20261;-87
2022/11/21 03:37:00;;;;;;;13.77;11.37;;;;;;;0.41;68.76;99451.38;10123162;29;20209;-85
2022/11/21 03:42:22;;;;;;;13.37;10.93;;;;;;;0.62;67.76;99442.88;10124794;29;20193;-87
2022/11/21 03:47:45;;;;;;;13.37;11.73;;;;;;;0.84;67.77;99444.03;10127267;29;20236;-84
2022/11/21 03:53:07;;;;;;;13.07;10.67;;;;;;;0.58;67.66;99440.69;10137442;29;20245;-85
2022/11/21 03:58:29;;;;;;;13.53;9.93;;;;;;;1.00;66.08;99444.72;10128522;29;20193;-86
2022/11/21 04:03:51;;;;;;;16.17;12.33;;;;;;;0.42;68.89;99444.72;10121641;29;20217;-85
2022/11/21 04:09:13;;;;;;;16.00;12.13;;;;;;;0.37;68.62;99444.75;10132591;29;20205;-85
2022/11/21 04:14:35;;;;;;;16.57;13.10;;;;;;;0.33;69.29;99452.00;10102376;29;20256;-86
2022/11/21 04:19:58;;;;;;;16.17;12.97;;;;;;;0.56;68.25;99434.63;10132118;29;20201;-85
2022/11/21 04:25:20;;;;;;;16.43;12.27;;;;;;;0.78;68.07;99444.41;10115371;29;20213;-86
2022/11/21 04:30:42;;;;;;;18.53;12.73;;;;;;;0.27;68.92;99446.75;10104864;29;20209;-87
2022/11/21 04:36:05;;;;;;;15.97;13.27;;;;;;;0.78;68.14;99436.91;10126791;29;20217;-86
2022/11/21 04:41:27;;;;;;;19.47;13.87;;;;;;;0.59;69.35;99445.13;10100867;29;20204;-86
2022/11/21 04:46:51;;;;;;;20.87;15.63;;;;;;;0.17;70.69;99458.75;10120296;29;20229;-85
2022/11/21 04:52:13;;;;;;;19.77;14.77;;;;;;;0.65;69.18;99456.19;10112732;29;20228;-86
2022/11/21 04:57:35;;;;;;;20.37;15.17;;;;;;;0.30;69.75;99452.56;10124634;29;20217;-87
2022/11/21 05:03:02;;;;;;;21.50;14.77;;;;;;;0.65;69.30;99461.72;10109773;29;20460;-86
2022/11/21 05:08:24;;;;;;;21.33;15.23;;;;;;;0.27;70.27;99455.91;10102826;29;20697;-87
2022/11/21 05:13:46;;;;;;;21.60;15.17;;;;;;;0.02;70.55;99448.59;10100034;29;20268;-87
2022/11/21 05:19:09;;;;;;;18.73;13.53;;;;;;;0.62;69.59;99449.25;10129692;29;20236;-85
2022/11/21 05:24:31;;;;;;;20.60;14.53;;;;;;;0.55;69.45;99441.28;10127095;29;20193;-85
2022/11/21 05:29:54;;;;;;;21.33;14.47;;;;;;;0.78;69.43;99444.41;10100019;29;20205;-84
2022/11/21 05:35:16;;;;;;;22.87;14.23;;;;;;;0.91;68.53;99449.25;10126502;29;20260;-85
2022/11/21 05:40:38;;;;;;;23.83;15.37;;;;;;;0.56;68.72;99442.94;10116108;29;20590;-86
2022/11/21 05:46:00;;;;;;;23.70;16.20;;;;;;;0.48;69.94;99440.78;10125442;29;20281;-84
2022/11/21 05:51:22;;;;;;;23.90;16.23;;;;;;;0.45;71.57;99451.63;10104553;29;20248;-84
2022/11/21 05:56:45;;;;;;;22.27;16.67;;;;;;;0.42;72.04;99443.91;10114570;29;21067;-84
2022/11/21 06:07:48;;;;;;;25.77;16.57;;;;;;;0.20;72.76;99422.13;10117995;29;20236;-86
2022/11/21 06:13:20;;;;;;;26.83;17.47;;;;;;;0.14;73.73;99434.38;10122505;29;20249;-86
2022/11/21 06:18:44;;;;;;;31.70;17.93;;;;;;;0.65;71.78;99428.44;10123803;29;20305;-85
2022/11/21 06:24:09;;;;;;;28.70;16.97;;;;;;;0.46;72.90;99433.88;10110216;29;20193;-87
2022/11/21 06:29:32;;;;;;;28.67;16.97;;;;;;;1.01;70.47;99410.31;10125618;29;20312;-87
2022/11/21 06:34:54;;;;;;;28.97;18.13;;;;;;;0.64;72.71;99407.38;10121138;29;20288;-85
2022/11/21 06:40:16;;;;;;;29.43;16.87;;;;;;;0.49;72.59;99409.16;10127059;29;20228;-83
2022/11/21 06:45:38;;;;;;;28.93;17.77;;;;;;;0.34;73.11;99405.69;10135825;29;20684;-83
2022/11/21 06:51:08;;;;;;;26.97;16.97;;;;;;;0.59;73.14;99397.16;10119378;29;20240;-81
2022/11/21 06:56:30;;;;;;;29.53;16.77;;;;;;;0.95;71.97;99406.78;10092653;29;20631;-83
2022/11/21 07:01:52;;;;;;;29.57;17.00;;;;;;;0.87;72.20;99399.09;10125894;29;20311;-83
2022/11/21 07:07:15;;;;;;;26.93;16.47;;;;;;;0.98;71.79;99397.00;10136608;29;20575;-82
2022/11/21 07:18:19;;;;;;;26.13;16.07;;;;;;;0.74;72.73;99407.25;10142768;29;20568;-84
2022/11/21 07:23:41;;;;;;;27.50;16.57;;;;;;;1.10;72.07;99397.44;10120196;29;20228;-83
2022/11/21 07:29:04;;;;;;;26.47;16.17;;;;;;;1.22;71.80;99406.16;10116823;29;20288;-82
2022/11/21 07:34:26;;;;;;;27.07;15.07;;;;;;;1.47;70.80;99412.53;10118525;29;20583;-82
2022/11/21 07:39:48;;;;;;;26.37;15.77;;;;;;;1.56;70.22;99405.19;10131452;29;20237;-83
2022/11/21 07:45:11;;;;;;;29.17;16.80;;;;;;;1.46;70.93;99411.72;10130740;29;20632;-82
2022/11/21 07:50:33;;;;;;;22.53;13.67;;;;;;;1.68;70.10;99409.19;10134645;29;20261;-81
2022/11/21 07:55:57;;;;;;;22.50;14.93;;;;;;;1.31;71.76;99401.63;10117827;29;20256;-81
2022/11/21 08:01:20;;;;;;;25.33;15.20;;;;;;;1.09;72.86;99400.53;10122762;29;20253;-84
2022/11/21 08:06:42;;;;;;;24.50;14.67;;;;;;;1.83;69.87;99410.91;10126195;29;20277;-83
2022/11/21 08:12:04;;;;;;;22.83;13.83;;;;;;;1.72;70.65;99397.47;10126525;29;20232;-83
2022/11/21 08:17:27;;;;;;;23.73;15.10;;;;;;;1.60;70.75;99395.97;10127891;29;20236;-82
2022/11/21 08:22:49;;;;;;;24.43;15.47;;;;;;;1.68;71.42;99392.50;10086539;29;20288;-81
2022/11/21 08:28:11;;;;;;;25.07;14.83;;;;;;;1.58;71.78;99383.50;10091989;29;20339;-81
2022/11/21 08:33:33;;;;;;;27.87;15.57;;;;;;;1.69;72.06;99362.78;10129747;29;20252;-82
2022/11/21 08:38:55;;;;;;;28.03;16.10;;;;;;;1.79;72.06;99365.41;10125522;29;20236;-81
2022/11/21 08:44:18;;;;;;;28.20;15.77;;;;;;;1.64;72.70;99369.22;10118707;29;20300;-82
2022/11/21 08:49:40;;;;;;;23.17;14.70;;;;;;;1.77;72.20;99364.88;10096044;29;20252;-81
2022/11/21 08:55:06;;;;;;;25.63;15.03;;;;;;;1.91;71.87;99368.56;10107665;29;20260;-82
2022/11/21 09:00:28;;;;;;;27.47;15.60;;;;;;;1.77;72.93;99361.28;10114524;29;20239;-82
2022/11/21 09:05:50;;;;;;;27.73;15.70;;;;;;;2.06;71.31;99355.56;10120192;29;20233;-81
2022/11/21 09:11:12;;;;;;;25.80;15.53;;;;;;;2.21;70.62;99347.00;10128310;29;20292;-81
2022/11/21 09:22:16;;;;;;;28.87;16.47;;;;;;;2.43;70.48;99369.41;10114989;29;20261;-81
2022/11/21 09:27:38;;;;;;;28.40;15.93;;;;;;;2.37;70.87;99353.94;10125560;29;20213;-81
2022/11/21 09:33:06;;;;;;;30.43;16.60;;;;;;;2.37;70.62;99348.38;10136215;29;20252;-81
2022/11/21 09:38:28;;;;;;;35.73;17.93;;;;;;;2.03;74.11;99351.41;10120971;29;20594;-82
2022/11/21 09:44:19;;;;;;;34.63;17.60;;;;;;;2.22;71.35;99346.69;10136023;29;20209;-82
2022/11/21 09:49:44;;;;;;;31.37;16.17;;;;;;;2.19;72.83;99349.25;10123413;29;20240;-83
2022/11/21 09:55:16;;;;;;;30.93;16.30;;;;;;;2.34;71.97;99351.78;10126400;29;20225;-83
2022/11/21 10:00:38;;;;;;;33.80;17.60;;;;;;;1.89;74.33;99343.03;10135140;29;20686;-83
2022/11/21 10:06:03;;;;;;;34.13;16.33;;;;;;;1.95;75.35;99336.25;10128032;29;20217;-83
2022/11/21 10:17:34;;;;;;;38.40;18.23;;;;;;;2.97;71.70;99323.31;10149180;29;20196;-83
2022/11/21 10:23:09;;;;;;;37.50;18.83;;;;;;;2.51;72.61;99315.88;10152501;29;20257;-83
2022/11/21 10:28:54;;;;;;;39.13;19.63;;;;;;;2.74;73.14;99308.47;10135229;29;20555;-84
2022/11/21 10:34:22;;;;;;;47.10;20.90;;;;;;;2.79;73.26;99290.81;10133398;29;20292;-83
2022/11/21 10:39:48;;;;;;;41.47;19.90;;;;;;;2.10;75.74;99278.78;10128001;29;20681;-83
2022/11/21 10:45:16;;;;;;;33.07;18.13;;;;;;;2.86;69.90;99260.66;10121676;29;20260;-83
2022/11/21 10:51:04;;;;;;;50.03;21.80;;;;;;;3.03;73.90;99241.34;10046777;29;20230;-81
2022/11/21 10:56:26;;;;;;;39.83;21.30;;;;;;;3.39;72.01;99233.81;10062052;29;20255;-81
2022/11/21 11:02:12;;;;;;;45.90;22.23;;;;;;;3.08;73.62;99225.34;10093383;29;20258;-82
2022/11/21 11:07:34;;;;;;;49.03;21.67;;;;;;;3.26;73.06;99217.16;10053431;29;20267;-81
2022/11/21 11:18:57;;;;;;;45.27;21.10;;;;;;;3.35;74.12;99206.91;10049122;29;20672;-81
2022/11/21 11:24:24;;;;;;;38.73;19.40;;;;;;;3.56;73.30;99190.50;10063826;29;20214;-81
2022/11/21 11:29:50;;;;;;;35.23;18.80;;;;;;;3.67;73.98;99180.78;10037618;29;20250;-82
2022/11/21 11:35:15;;;;;;;34.33;19.63;;;;;;;3.70;73.93;99168.97;10064745;29;20259;-81
2022/11/21 11:40:42;;;;;;;34.60;19.10;;;;;;;3.91;72.71;99159.00;10057498;29;20227;-81
2022/11/21 11:52:22;;;;;;;35.80;18.87;;;;;;;3.84;73.21;99147.47;10121998;29;20527;-82
2022/11/21 11:57:46;;;;;;;37.07;20.47;;;;;;;4.25;71.75;99140.75;10117034;29;20585;-81
2022/11/21 12:03:18;;;;;;;38.97;19.50;;;;;;;3.64;75.39;99142.41;10135509;29;20201;-81
2022/11/21 12:08:50;;;;;;;36.10;20.20;;;;;;;4.22;74.36;99128.28;10109439;29;20518;-82
2022/11/21 12:21:14;;;;;;;27.97;16.80;;;;;;;4.07;75.23;99110.00;10077096;29;20284;-81
2022/11/21 12:26:55;;;;;;;25.23;15.90;;;;;;;4.49;72.94;99091.75;10138014;29;20304;-81
2022/11/21 12:32:37;;;;;;;20.63;14.17;;;;;;;4.02;73.77;99081.47;10112419;29;20268;-82
2022/11/21 12:38:08;;;;;;;21.37;15.27;;;;;;;4.50;72.55;99075.84;10112070;29;20267;-81
2022/11/21 12:43:44;;;;;;;25.50;15.57;;;;;;;5.26;70.57;99070.63;10099284;29;20257;-81
2022/11/21 12:55:17;;;;;;;18.90;13.60;;;;;;;4.88;72.21;99054.53;10139381;29;20312;-80
2022/11/21 13:00:56;;;;;;;18.17;12.13;;;;;;;4.62;71.13;99039.75;10123407;29;20200;-81
2022/11/21 13:06:22;;;;;;;19.73;11.33;;;;;;;4.77;71.23;99044.84;10133264;29;20205;-82
2022/11/21 13:11:59;;;;;;;18.57;11.80;;;;;;;4.67;70.49;99030.41;10126511;29;20594;-82
2022/11/21 13:17:24;;;;;;;17.27;11.17;;;;;;;4.77;70.25;99016.94;10115847;29;20587;-82
2022/11/21 13:22:49;;;;;;;12.00;9.83;;;;;;;4.91;69.60;99008.38;10149745;29;20205;-82
2022/11/21 13:28:17;;;;;;;13.47;9.47;;;;;;;5.04;68.86;99010.16;10110215;29;20205;-82
2022/11/21 13:33:39;;;;;;;12.57;8.97;;;;;;;4.44;70.75;98999.88;10106914;29;20299;-82
2022/11/21 13:39:02;;;;;;;13.23;8.93;;;;;;;4.22;72.02;98986.03;10119354;29;20209;-82
2022/11/21 13:44:33;;;;;;;11.63;8.07;;;;;;;4.29;72.11;98991.16;10142804;29;20205;-82
2022/11/21 13:50:08;;;;;;;14.03;9.33;;;;;;;4.68;70.15;98968.69;10137530;29;20288;-80
2022/11/21 13:55:59;;;;;;;12.97;8.60;;;;;;;4.74;70.14;98958.16;10110420;29;20258;-80
2022/11/21 14:01:53;;;;;;;10.27;7.97;;;;;;;4.61;69.48;98943.22;10124163;29;20212;-81
2022/11/21 14:07:30;;;;;;;11.23;7.93;;;;;;;4.39;69.32;98940.63;10120557;29;20281;-81
2022/11/21 14:12:54;;;;;;;11.33;7.77;;;;;;;4.37;69.57;98928.97;10120564;29;20205;-81
2022/11/21 14:18:23;;;;;;;8.00;6.43;;;;;;;4.66;68.66;98926.31;10134042;29;20284;-81
2022/11/21 14:23:46;;;;;;;9.40;6.57;;;;;;;4.33;70.13;98914.88;10140790;29;20487;-80
2022/11/21 14:29:38;;;;;;;8.43;6.47;;;;;;;4.26;70.37;98908.97;10118139;29;20257;-81
2022/11/21 14:35:18;;;;;;;13.17;7.23;;;;;;;4.67;68.94;98902.84;10108780;29;20237;-79
2022/11/21 14:40:41;;;;;;;10.07;7.03;;;;;;;4.70;68.29;98885.44;10126627;29;20206;-80
2022/11/21 14:46:03;;;;;;;11.60;7.80;;;;;;;4.71;68.57;98887.09;10120929;29;20296;-80
2022/11/21 14:51:26;;;;;;;10.73;7.60;;;;;;;4.93;68.12;98872.06;10132675;29;20253;-81
2022/11/21 14:57:00;;;;;;;11.23;8.07;;;;;;;4.68;68.45;98873.78;10132167;29;20256;-82
2022/11/21 15:02:24;;;;;;;9.67;8.67;;;;;;;4.42;69.78;98859.06;10105977;29;20232;-82
2022/11/21 15:07:47;;;;;;;13.37;10.33;;;;;;;4.36;69.35;98846.44;10115311;29;20284;-81
2022/11/21 15:13:11;;;;;;;17.27;9.87;;;;;;;4.06;70.32;98825.97;10124496;29;20685;-82
2022/11/21 15:18:36;;;;;;;12.80;8.60;;;;;;;4.27;68.99;98814.94;10104589;29;20289;-82
2022/11/21 15:24:18;;;;;;;10.97;7.60;;;;;;;3.77;70.74;98813.50;10138039;29;20237;-81
2022/11/21 15:29:40;;;;;;;10.80;8.20;;;;;;;3.74;69.92;98807.75;10112155;29;20233;-81
2022/11/21 15:35:45;;;;;;;11.03;7.80;;;;;;;3.66;70.89;98801.03;10106981;29;20252;-82
2022/11/21 15:41:08;;;;;;;9.30;6.43;;;;;;;3.67;70.36;98791.53;10112547;29;20248;-82
2022/11/21 15:46:32;;;;;;;11.47;5.73;;;;;;;3.58;69.94;98764.78;10111309;29;20725;-82
2022/11/21 15:51:55;;;;;;;9.53;5.27;;;;;;;3.64;69.67;98741.19;10113196;29;20220;-82
2022/11/21 15:57:17;;;;;;;8.00;5.67;;;;;;;3.38;70.48;98730.06;10092536;29;20264;-82
2022/11/21 16:02:21;;;;;;;6.33;4.80;;;;;;;2.89;72.40;98731.31;10115304;29;20240;-81
2022/11/21 16:07:43;;;;;;;9.27;4.83;;;;;;;3.40;70.61;98711.88;10089548;29;20847;-82
2022/11/21 16:13:05;;;;;;;5.10;4.60;;;;;;;3.25;70.62;98698.44;10107410;29;20615;-82
2022/11/21 16:18:28;;;;;;;8.53;4.80;;;;;;;3.34;70.39;98699.25;10087665;29;20326;-82
2022/11/21 16:23:51;;;;;;;5.83;4.70;;;;;;;3.31;70.57;98691.53;10115405;29;20234;-83
2022/11/21 16:29:13;;;;;;;6.90;5.17;;;;;;;3.19;70.62;98677.47;10119992;29;20233;-83
2022/11/21 16:34:35;;;;;;;6.67;4.70;;;;;;;3.27;69.91;98679.44;10111827;29;20348;-81
2022/11/21 16:39:57;;;;;;;10.23;5.23;;;;;;;3.57;68.06;98660.91;10103054;29;20334;-82
2022/11/21 16:45:19;;;;;;;6.53;5.30;;;;;;;3.46;68.61;98651.25;10118724;29;20307;-80
2022/11/21 16:50:41;;;;;;;6.53;5.20;;;;;;;3.44;68.61;98634.88;10094087;29;20253;-82
2022/11/21 16:56:03;;;;;;;5.27;4.77;;;;;;;3.23;69.96;98647.81;10113434;29;20252;-81
2022/11/21 17:01:27;;;;;;;4.73;3.53;;;;;;;3.31;68.69;98635.84;10124483;29;20261;-82
2022/11/21 17:06:49;;;;;;;6.53;3.70;;;;;;;3.35;68.86;98631.28;10113261;29;20661;-82
2022/11/21 17:12:12;;;;;;;5.37;3.30;;;;;;;2.91;69.13;98639.94;10121966;29;20241;-83
2022/11/21 17:17:35;;;;;;;4.80;2.47;;;;;;;3.38;66.93;98630.63;10117905;29;20646;-82
2022/11/21 17:22:57;;;;;;;2.73;1.83;;;;;;;3.19;66.84;98621.78;10101168;29;20681;-82
2022/11/21 17:28:19;;;;;;;6.30;2.30;;;;;;;3.33;66.94;98597.38;10106865;29;20229;-82
2022/11/21 17:33:42;;;;;;;5.10;1.80;;;;;;;3.65;65.34;98584.03;10108727;29;20236;-82
2022/11/21 17:39:04;;;;;;;5.13;2.23;;;;;;;3.37;66.24;98576.06;10104573;29;20252;-81
2022/11/21 17:44:27;;;;;;;5.87;2.43;;;;;;;3.33;66.58;98579.84;10115442;29;20240;-83
2022/11/21 17:49:49;;;;;;;4.07;2.27;;;;;;;3.33;66.66;98580.66;10120521;29;20331;-82
2022/11/21 17:55:11;;;;;;;4.43;2.47;;;;;;;2.54;67.95;98569.06;10098645;29;20340;-82
2022/11/21 18:00:33;;;;;;;3.53;1.30;;;;;;;3.47;65.50;98533.13;10101166;29;20229;-83
2022/11/21 18:06:06;;;;;;;4.77;2.30;;;;;;;3.35;65.25;98521.88;10140270;29;20228;-83
2022/11/21 18:11:31;;;;;;;4.03;1.73;;;;;;;4.03;62.66;98526.38;10132201;29;20257;-82
2022/11/21 18:16:53;;;;;;;5.60;1.77;;;;;;;3.81;64.80;98496.00;10098179;29;20256;-82
2022/11/21 18:22:15;;;;;;;3.23;1.97;;;;;;;3.42;67.06;98481.19;10120846;29;20236;-84
2022/11/21 18:27:38;;;;;;;6.73;2.23;;;;;;;2.88;67.15;98507.88;10117245;29;20236;-82
2022/11/21 18:33:00;;;;;;;6.77;2.17;;;;;;;3.21;67.76;98516.50;10132295;29;20229;-82
2022/11/21 18:38:22;;;;;;;4.20;1.60;;;;;;;3.33;66.62;98563.97;10133055;29;20249;-81
2022/11/21 18:43:49;;;;;;;5.10;2.43;;;;;;;3.85;65.28;98569.41;10097760;29;20218;-81
2022/11/21 18:49:11;;;;;;;6.33;2.40;;;;;;;3.41;64.97;98593.78;10099598;29;21556;-82
2022/11/21 18:54:33;;;;;;;4.60;1.90;;;;;;;3.41;64.83;98560.34;10091146;29;20240;-81
2022/11/21 18:59:55;;;;;;;5.17;1.20;;;;;;;3.56;64.01;98544.22;10092497;29;20301;-82
2022/11/21 19:05:17;;;;;;;4.93;1.20;;;;;;;3.80;63.45;98533.38;10115502;29;20237;-82
2022/11/21 19:10:39;;;;;;;3.17;1.57;;;;;;;4.09;61.60;98522.22;10104059;29;20291;-82
2022/11/21 19:16:07;;;;;;;5.43;1.47;;;;;;;3.85;62.22;98507.28;10113223;29;20645;-81
2022/11/21 19:21:30;;;;;;;2.13;1.57;;;;;;;3.69;62.59;98506.97;10113007;29;20237;-82
2022/11/21 19:26:52;;;;;;;2.30;1.17;;;;;;;2.88;65.38;98498.72;10102581;29;20300;-81
2022/11/21 19:32:14;;;;;;;2.97;1.30;;;;;;;3.43;63.29;98479.22;10109175;29;20237;-82
2022/11/21 19:37:36;;;;;;;6.13;1.40;;;;;;;3.44;63.33;98472.50;10106322;29;20588;-82
2022/11/21 19:42:58;;;;;;;2.57;1.23;;;;;;;3.52;62.87;98462.50;10119491;29;20213;-82
2022/11/21 19:48:20;;;;;;;2.90;1.20;;;;;;;3.61;61.52;98461.31;10112098;29;20313;-82
2022/11/21 19:53:43;;;;;;;3.27;1.00;;;;;;;2.67;65.59;98462.38;10093686;29;20282;-81
2022/11/21 19:59:05;;;;;;;4.00;1.70;;;;;;;3.05;64.58;98473.63;10084426;29;20261;-81
2022/11/21 20:04:27;;;;;;;3.97;1.07;;;;;;;3.50;63.05;98450.88;10106574;29;20639;-80
2022/11/21 20:09:49;;;;;;;4.10;1.20;;;;;;;3.42;63.51;98450.56;10094325;29;20596;-81
2022/11/21 20:15:12;;;;;;;4.17;1.40;;;;;;;4.16;60.99;98444.47;10102750;29;20245;-80
2022/11/21 20:20:34;;;;;;;4.17;1.33;;;;;;;3.19;64.54;98451.97;10086007;29;20562;-83
2022/11/21 20:25:56;;;;;;;2.67;1.40;;;;;;;3.17;64.52;98443.13;10104810;29;20605;-81
2022/11/21 20:31:25;;;;;;;3.00;1.30;;;;;;;3.64;61.75;98434.75;10086712;29;20312;-81
2022/11/21 20:36:48;;;;;;;5.10;1.73;;;;;;;4.14;59.86;98412.50;10088423;29;20308;-82
2022/11/21 20:42:10;;;;;;;3.03;1.37;;;;;;;3.97;60.75;98402.28;10120304;29;20220;-83
2022/11/21 20:47:35;;;;;;;5.70;1.40;;;;;;;4.21;60.06;98384.06;10132945;29;20228;-82
2022/11/21 20:52:57;;;;;;;7.00;1.80;;;;;;;3.98;61.38;98373.25;10126213;29;20217;-83
2022/11/21 20:58:19;;;;;;;6.13;1.93;;;;;;;4.25;62.26;98359.91;10139803;29;20705;-84
2022/11/21 21:03:42;;;;;;;5.20;1.70;;;;;;;4.10;61.87;98334.28;10119584;29;20232;-83
2022/11/21 21:09:04;;;;;;;3.80;1.53;;;;;;;4.06;60.29;98335.34;10135643;29;20202;-82
2022/11/21 21:14:26;;;;;;;7.40;2.10;;;;;;;4.15;59.59;98328.53;10143241;29;20268;-83
2022/11/21 21:19:48;;;;;;;3.90;1.23;;;;;;;3.95;60.53;98323.75;10119016;29;20729;-83
2022/11/21 21:25:10;;;;;;;4.93;1.70;;;;;;;4.44;59.54;98313.63;10128345;29;20217;-86
2022/11/21 21:30:32;;;;;;;4.50;1.57;;;;;;;3.90;61.42;98314.81;10144957;29;20273;-84
2022/11/21 21:35:54;;;;;;;4.60;1.70;;;;;;;4.20;59.46;98315.53;10110540;29;20641;-85
2022/11/21 21:41:17;;;;;;;3.17;1.70;;;;;;;4.05;59.87;98317.78;10110468;29;20209;-85
2022/11/21 21:46:40;;;;;;;3.97;1.27;;;;;;;3.67;61.79;98309.53;10127103;29;20232;-84
2022/11/21 21:52:02;;;;;;;4.40;1.53;;;;;;;4.10;59.79;98320.34;10147058;29;20283;-84
2022/11/21 21:57:24;;;;;;;4.43;1.73;;;;;;;3.77;60.69;98311.94;10148153;29;20241;-85
2022/11/21 22:02:46;;;;;;;4.53;1.30;;;;;;;3.83;59.83;98293.03;10130699;29;20205;-84
2022/11/21 22:08:08;;;;;;;4.23;0.87;;;;;;;3.57;59.95;98284.84;10127418;29;20205;-85
2022/11/21 22:13:31;;;;;;;6.67;1.17;;;;;;;3.82;59.49;98288.63;10143528;29;20241;-85
2022/11/21 22:18:54;;;;;;;2.83;0.80;;;;;;;4.04;58.90;98291.06;10113965;29;20297;-86
2022/11/21 22:24:16;;;;;;;4.50;0.80;;;;;;;3.99;59.20;98284.88;10125679;29;20208;-85
2022/11/21 22:29:38;;;;;;;3.73;1.27;;;;;;;3.59;60.01;98285.34;10121693;29;20618;-85
2022/11/21 22:35:00;;;;;;;6.70;1.37;;;;;;;3.55;59.83;98286.38;10139963;29;20205;-86
2022/11/21 22:40:22;;;;;;;1.87;0.63;;;;;;;3.55;60.30;98280.81;10113488;29;20205;-85
2022/11/21 22:45:45;;;;;;;3.43;0.90;;;;;;;3.44;60.78;98294.28;10142315;29;20217;-85
2022/11/21 22:51:07;;;;;;;4.70;0.80;;;;;;;3.51;61.05;98285.41;10128817;29;20261;-85
2022/11/21 22:56:29;;;;;;;4.30;1.10;;;;;;;3.41;61.30;98284.66;10114794;29;20637;-85
2022/11/21 23:01:53;;;;;;;1.60;0.80;;;;;;;3.44;61.97;98278.41;10114927;29;20213;-85
2022/11/21 23:07:15;;;;;;;4.93;1.07;;;;;;;3.51;61.44;98286.22;10141106;29;20205;-84
2022/11/21 23:12:37;;;;;;;3.67;0.83;;;;;;;3.42;61.71;98272.34;10128017;29;20201;-85
2022/11/21 23:17:59;;;;;;;3.40;1.07;;;;;;;3.40;62.29;98271.06;10128114;29;20252;-85
2022/11/21 23:23:22;;;;;;;3.23;0.73;;;;;;;3.46;62.49;98267.75;10141390;29;20205;-84
2022/11/21 23:28:44;;;;;;;3.93;1.10;;;;;;;3.62;62.80;98264.34;10105307;29;20213;-86
2022/11/21 23:34:09;;;;;;;2.20;0.60;;;;;;;3.39;62.97;98255.53;10124136;29;20280;-86
2022/11/21 23:39:32;;;;;;;1.93;0.90;;;;;;;3.44;63.90;98256.13;10121159;29;20292;-84
2022/11/21 23:44:54;;;;;;;1.53;0.60;;;;;;;3.51;63.58;98249.19;10140483;29;20201;-83
2022/11/21 23:50:16;;;;;;;3.00;0.73;;;;;;;3.08;65.70;98228.03;10135112;29;20280;-84
2022/11/21 23:55:38;;;;;;;2.03;0.73;;;;;;;3.57;64.97;98228.34;10137805;29;20264;-84
